Wetterdaten: Woche 15.02.16 - 21.02.16 (KW7)
Datum Zeit Temp. A. Feuchte A. Luftdruck Regen Wind Richtung Sonnenschein ET UV Solar Taupunkt Windchill Windben Empfang
15.02.2016 00:00 4,9 C 91 % 999,1 hPa 0,4 l/m 14,7 km/h (3 Bft) SW 0,00 h 0,000 mm 0,0 UV-I 0 W/m 3,6 C -0,7 C 20,9 km/h (4 Bft) 99,03 %
15.02.2016 01:00 3,7 C 94 % 1000,3 hPa 1,2 l/m 16,1 km/h (3 Bft) W-SW 0,00 h 0,000 mm 0,0 UV-I 0 W/m 2,9 C -3,0 C 22,8 km/h (4 Bft) 97,20 %
15.02.2016 02:00 3,2 C 94 % 1001,3 hPa 0,4 l/m 15,0 km/h (3 Bft) SW 0,00 h 0,000 mm 0,0 UV-I 0 W/m 2,3 C -3,0 C 21,5 km/h (4 Bft) 98,46 %
15.02.2016 03:00 2,9 C 94 % 1001,8 hPa 0,2 l/m 12,7 km/h (3 Bft) SW 0,00 h 0,000 mm 0,0 UV-I 0 W/m 2,0 C -2,0 C 18,2 km/h (3 Bft) 97,48 %
15.02.2016 04:00 3,0 C 94 % 1002,4 hPa 0,0 l/m 9,1 km/h (2 Bft) SW 0,00 h 0,000 mm 0,0 UV-I 0 W/m 2,2 C 0,6 C 13,3 km/h (3 Bft) 98,74 %
15.02.2016 05:00 2,9 C 95 % 1003,1 hPa 0,0 l/m 5,1 km/h (1 Bft) SW 0,00 h 0,000 mm 0,0 UV-I 0 W/m 2,1 C 2,7 C 7,1 km/h (2 Bft) 97,30 %
15.02.2016 06:00 2,8 C 96 % 1003,7 hPa 0,0 l/m 3,3 km/h (1 Bft) SW 0,00 h 0,000 mm 0,0 UV-I 0 W/m 2,2 C 2,8 C 4,9 km/h (1 Bft) 98,17 %
15.02.2016 07:00 2,9 C 96 % 1005,0 hPa 0,0 l/m 4,6 km/h (1 Bft) S-SW 0,00 h 0,000 mm 0,0 UV-I 14 W/m 2,3 C 2,8 C 6,2 km/h (2 Bft) 97,79 %
15.02.2016 08:00 3,3 C 96 % 1005,8 hPa 0,0 l/m 3,5 km/h (1 Bft) W-SW 0,00 h 0,000 mm 0,0 UV-I 39 W/m 2,7 C 3,3 C 5,1 km/h (1 Bft) 98,77 %
15.02.2016 09:00 4,1 C 94 % 1006,7 hPa 0,0 l/m 3,4 km/h (1 Bft) W 0,00 h 0,025 mm 0,0 UV-I 64 W/m 3,1 C 4,1 C 4,9 km/h (1 Bft) 98,44 %
15.02.2016 10:00 4,6 C 93 % 1007,6 hPa 0,0 l/m 3,5 km/h (1 Bft) W 0,00 h 0,026 mm 0,4 UV-I 99 W/m 3,5 C 4,6 C 4,8 km/h (1 Bft) 98,41 %
15.02.2016 11:00 5,1 C 92 % 1008,2 hPa 0,0 l/m 5,5 km/h (1 Bft) W-SW 0,00 h 0,051 mm 0,5 UV-I 123 W/m 3,8 C 4,9 C 8,6 km/h (2 Bft) 98,37 %
15.02.2016 12:00 5,5 C 90 % 1008,7 hPa 0,0 l/m 4,4 km/h (1 Bft) W 0,00 h 0,050 mm 0,6 UV-I 144 W/m 4,0 C 5,4 C 6,5 km/h (2 Bft) 98,26 %
15.02.2016 13:00 6,1 C 88 % 1009,7 hPa 0,0 l/m 5,2 km/h (1 Bft) W-SW 0,00 h 0,051 mm 0,6 UV-I 154 W/m 4,2 C 6,0 C 7,7 km/h (2 Bft) 98,90 %
15.02.2016 14:00 6,6 C 85 % 1010,4 hPa 0,0 l/m 6,0 km/h (2 Bft) W-SW 0,18 h 0,076 mm 0,5 UV-I 172 W/m 4,3 C 6,3 C 8,7 km/h (2 Bft) 98,04 %
15.02.2016 15:00 6,9 C 83 % 1011,4 hPa 0,0 l/m 3,7 km/h (1 Bft) W 0,00 h 0,077 mm 0,0 UV-I 106 W/m 4,2 C 6,9 C 5,6 km/h (1 Bft) 99,10 %
15.02.2016 16:00 6,8 C 84 % 1012,2 hPa 0,0 l/m 1,6 km/h (1 Bft) W 0,00 h 0,050 mm 0,0 UV-I 47 W/m 4,3 C 6,8 C 2,7 km/h (1 Bft) 97,83 %
15.02.2016 17:00 5,9 C 89 % 1013,3 hPa 0,0 l/m 1,4 km/h (1 Bft) W 0,00 h 0,026 mm 0,0 UV-I 10 W/m 4,3 C 5,9 C 2,3 km/h (1 Bft) 99,09 %
15.02.2016 18:00 5,3 C 91 % 1014,7 hPa 0,0 l/m 1,6 km/h (1 Bft) W 0,00 h 0,000 mm 0,0 UV-I 0 W/m 4,0 C 5,3 C 2,7 km/h (1 Bft) 97,86 %
15.02.2016 19:00 4,9 C 92 % 1015,7 hPa 0,0 l/m 2,4 km/h (1 Bft) S 0,00 h 0,000 mm 0,0 UV-I 0 W/m 3,7 C 4,9 C 3,4 km/h (1 Bft) 99,30 %
15.02.2016 20:00 4,7 C 92 % 1016,4 hPa 0,0 l/m 2,4 km/h (1 Bft) S-SO 0,00 h 0,000 mm 0,0 UV-I 0 W/m 3,5 C 4,7 C 4,4 km/h (1 Bft) 98,01 %
15.02.2016 21:00 4,8 C 91 % 1017,7 hPa 0,0 l/m 4,5 km/h (1 Bft) S-SW 0,00 h 0,000 mm 0,0 UV-I 0 W/m 3,5 C 4,8 C 6,1 km/h (2 Bft) 99,29 %
15.02.2016 22:00 4,7 C 92 % 1018,7 hPa 0,0 l/m 4,6 km/h (1 Bft) S-SW 0,00 h 0,000 mm 0,0 UV-I 0 W/m 3,5 C 4,7 C 6,0 km/h (2 Bft) 97,82 %
15.02.2016 23:00 4,6 C 93 % 1019,7 hPa 0,2 l/m 3,2 km/h (1 Bft) S 0,00 h 0,000 mm 0,0 UV-I 0 W/m 3,6 C 4,5 C 4,8 km/h (1 Bft) 98,88 %
16.02.2016 00:00 4,4 C 95 % 1020,9 hPa 0,2 l/m 3,3 km/h (1 Bft) S-SW 0,00 h 0,000 mm 0,0 UV-I 0 W/m 3,6 C 4,4 C 4,8 km/h (1 Bft) 97,92 %
16.02.2016 01:00 4,2 C 96 % 1022,0 hPa 0,0 l/m 2,1 km/h (1 Bft) S-SW 0,00 h 0,000 mm 0,0 UV-I 0 W/m 3,7 C 4,2 C 3,3 km/h (1 Bft) 99,30 %
16.02.2016 02:00 4,2 C 96 % 1022,9 hPa 0,0 l/m 1,7 km/h (1 Bft) S 0,00 h 0,000 mm 0,0 UV-I 0 W/m 3,6 C 4,2 C 2,8 km/h (1 Bft) 98,02 %
16.02.2016 03:00 3,9 C 97 % 1023,6 hPa 0,2 l/m 0,9 km/h (0 Bft) S 0,00 h 0,000 mm 0,0 UV-I 0 W/m 3,5 C 3,9 C 1,4 km/h (1 Bft) 99,01 %
16.02.2016 04:00 3,9 C 97 % 1024,5 hPa 0,6 l/m 1,6 km/h (1 Bft) O-SO 0,00 h 0,000 mm 0,0 UV-I 0 W/m 3,5 C 3,9 C 2,8 km/h (1 Bft) 98,28 %
16.02.2016 05:00 3,9 C 96 % 1025,4 hPa 0,2 l/m 7,7 km/h (2 Bft) NO 0,00 h 0,000 mm 0,0 UV-I 0 W/m 3,3 C 2,2 C 10,7 km/h (2 Bft) 98,82 %
16.02.2016 06:00 3,6 C 92 % 1026,2 hPa 0,2 l/m 10,9 km/h (2 Bft) NO 0,00 h 0,000 mm 0,0 UV-I 0 W/m 2,3 C -0,1 C 15,6 km/h (3 Bft) 98,09 %
16.02.2016 07:00 3,3 C 93 % 1027,4 hPa 0,2 l/m 8,5 km/h (2 Bft) O-NO 0,00 h 0,000 mm 0,0 UV-I 5 W/m 2,3 C 1,4 C 12,4 km/h (3 Bft) 98,59 %
16.02.2016 08:00 3,1 C 94 % 1028,3 hPa 0,0 l/m 7,8 km/h (2 Bft) O-NO 0,00 h 0,000 mm 0,0 UV-I 17 W/m 2,2 C 1,4 C 11,2 km/h (2 Bft) 98,37 %
16.02.2016 09:00 3,2 C 94 % 1029,2 hPa 0,0 l/m 5,1 km/h (1 Bft) N-NO 0,00 h 0,000 mm 0,0 UV-I 43 W/m 2,3 C 3,0 C 7,7 km/h (2 Bft) 98,96 %
16.02.2016 10:00 3,5 C 92 % 1029,8 hPa 0,0 l/m 8,2 km/h (2 Bft) NO 0,00 h 0,025 mm 0,0 UV-I 61 W/m 2,3 C 1,9 C 11,8 km/h (2 Bft) 98,47 %
16.02.2016 11:00 3,9 C 89 % 1030,4 hPa 0,0 l/m 9,5 km/h (2 Bft) O-NO 0,00 h 0,026 mm 0,0 UV-I 83 W/m 2,3 C 1,3 C 13,5 km/h (3 Bft) 99,01 %
16.02.2016 12:00 4,3 C 86 % 1030,8 hPa 0,0 l/m 9,5 km/h (2 Bft) O-NO 0,00 h 0,051 mm 0,4 UV-I 95 W/m 2,1 C 1,7 C 13,4 km/h (3 Bft) 98,57 %
16.02.2016 13:00 4,7 C 84 % 1030,7 hPa 0,0 l/m 10,7 km/h (2 Bft) NO 0,00 h 0,050 mm 0,6 UV-I 107 W/m 2,2 C 1,3 C 15,4 km/h (3 Bft) 97,99 %
16.02.2016 14:00 4,8 C 81 % 1030,7 hPa 0,0 l/m 12,8 km/h (3 Bft) NO 0,00 h 0,051 mm 0,0 UV-I 83 W/m 1,8 C 0,2 C 17,5 km/h (3 Bft) 98,63 %
16.02.2016 15:00 4,6 C 80 % 1031,0 hPa 0,0 l/m 14,2 km/h (3 Bft) NO 0,00 h 0,051 mm 0,0 UV-I 33 W/m 1,5 C -0,9 C 19,2 km/h (3 Bft) 98,58 %
16.02.2016 16:00 4,1 C 82 % 1031,0 hPa 0,0 l/m 12,8 km/h (3 Bft) NO 0,00 h 0,025 mm 0,0 UV-I 15 W/m 1,3 C -0,7 C 17,2 km/h (3 Bft) 99,12 %
16.02.2016 17:00 3,9 C 81 % 1031,2 hPa 0,0 l/m 10,6 km/h (2 Bft) NO 0,00 h 0,026 mm 0,0 UV-I 7 W/m 1,0 C 0,5 C 15,1 km/h (3 Bft) 98,25 %
16.02.2016 18:00 3,7 C 81 % 1031,5 hPa 0,0 l/m 11,6 km/h (2 Bft) NO 0,00 h 0,025 mm 0,0 UV-I 0 W/m 0,8 C -0,4 C 16,0 km/h (3 Bft) 98,79 %
16.02.2016 19:00 3,6 C 81 % 1031,5 hPa 0,0 l/m 13,8 km/h (3 Bft) NO 0,00 h 0,026 mm 0,0 UV-I 0 W/m 0,6 C -1,8 C 18,7 km/h (3 Bft) 98,01 %
16.02.2016 20:00 3,5 C 80 % 1031,4 hPa 0,0 l/m 16,5 km/h (3 Bft) NO 0,00 h 0,025 mm 0,0 UV-I 0 W/m 0,3 C -3,5 C 22,1 km/h (4 Bft) 99,68 %
16.02.2016 21:00 3,1 C 80 % 1031,4 hPa 0,0 l/m 16,0 km/h (3 Bft) NO 0,00 h 0,025 mm 0,0 UV-I 0 W/m 0,0 C -3,7 C 21,5 km/h (4 Bft) 98,15 %
16.02.2016 22:00 2,8 C 83 % 1030,6 hPa 0,0 l/m 14,8 km/h (3 Bft) NO 0,00 h 0,026 mm 0,0 UV-I 0 W/m 0,2 C -3,4 C 20,3 km/h (4 Bft) 99,49 %
16.02.2016 23:00 2,9 C 84 % 1029,6 hPa 0,2 l/m 27,1 km/h (4 Bft) NO 0,00 h 0,025 mm 0,0 UV-I 0 W/m 0,5 C -8,2 C 35,4 km/h (5 Bft) 97,93 %
17.02.2016 00:00 2,3 C 87 % 1028,7 hPa 0,0 l/m 31,0 km/h (5 Bft) O-NO 0,00 h 0,000 mm 0,0 UV-I 0 W/m 0,4 C -10,3 C 40,8 km/h (6 Bft) 99,53 %
17.02.2016 01:00 1,7 C 90 % 1027,7 hPa 0,0 l/m 32,1 km/h (5 Bft) O-NO 0,00 h 0,025 mm 0,0 UV-I 0 W/m 0,2 C -11,5 C 42,0 km/h (6 Bft) 97,63 %
17.02.2016 02:00 1,4 C 90 % 1027,0 hPa 0,0 l/m 27,9 km/h (4 Bft) O-NO 0,00 h 0,026 mm 0,0 UV-I 0 W/m -0,1 C -10,8 C 36,2 km/h (5 Bft) 99,42 %
17.02.2016 03:00 1,0 C 92 % 1025,6 hPa 0,2 l/m 30,6 km/h (5 Bft) O-NO 0,00 h 0,025 mm 0,0 UV-I 0 W/m -0,1 C -12,0 C 40,2 km/h (6 Bft) 97,80 %
17.02.2016 04:00 1,2 C 92 % 1024,1 hPa 0,0 l/m 33,2 km/h (5 Bft) O-NO 0,00 h 0,026 mm 0,0 UV-I 0 W/m 0,0 C -12,6 C 43,0 km/h (6 Bft) 99,39 %
17.02.2016 05:00 1,1 C 92 % 1023,1 hPa 0,0 l/m 32,1 km/h (5 Bft) O-NO 0,00 h 0,025 mm 0,0 UV-I 0 W/m -0,0 C -12,3 C 42,0 km/h (6 Bft) 97,91 %
17.02.2016 06:00 1,2 C 92 % 1021,9 hPa 0,0 l/m 29,2 km/h (5 Bft) O-NO 0,00 h 0,025 mm 0,0 UV-I 0 W/m 0,0 C -11,3 C 38,4 km/h (5 Bft) 98,96 %
17.02.2016 07:00 1,3 C 92 % 1020,9 hPa 0,0 l/m 33,6 km/h (5 Bft) O-NO 0,00 h 0,026 mm 0,0 UV-I 17 W/m 0,1 C -12,4 C 44,4 km/h (6 Bft) 98,08 %
17.02.2016 08:00 1,5 C 93 % 1019,4 hPa 0,0 l/m 37,9 km/h (5 Bft) O-NO 0,00 h 0,025 mm 0,0 UV-I 42 W/m 0,5 C -13,2 C 50,2 km/h (7 Bft) 99,04 %
17.02.2016 09:00 2,1 C 92 % 1018,3 hPa 0,0 l/m 32,9 km/h (5 Bft) O-NO 0,00 h 0,026 mm 0,0 UV-I 71 W/m 0,9 C -11,2 C 43,9 km/h (6 Bft) 98,10 %
17.02.2016 10:00 3,2 C 90 % 1017,1 hPa 0,0 l/m 36,3 km/h (5 Bft) O-NO 0,38 h 0,050 mm 0,7 UV-I 271 W/m 1,7 C -10,3 C 48,0 km/h (6 Bft) 99,26 %
17.02.2016 11:00 4,1 C 87 % 1016,3 hPa 0,0 l/m 34,1 km/h (5 Bft) O-NO 0,23 h 0,127 mm 0,9 UV-I 240 W/m 2,2 C -8,6 C 44,7 km/h (6 Bft) 98,08 %
17.02.2016 12:00 5,4 C 86 % 1014,9 hPa 0,0 l/m 29,5 km/h (5 Bft) O-NO 0,77 h 0,127 mm 1,2 UV-I 431 W/m 3,2 C -5,7 C 38,5 km/h (5 Bft) 99,37 %
17.02.2016 13:00 5,7 C 84 % 1013,8 hPa 0,0 l/m 24,7 km/h (4 Bft) O-NO 0,00 h 0,204 mm 0,6 UV-I 173 W/m 3,2 C -3,8 C 33,2 km/h (5 Bft) 98,64 %
17.02.2016 14:00 5,5 C 85 % 1013,6 hPa 0,0 l/m 12,2 km/h (2 Bft) O-NO 0,00 h 0,101 mm 0,0 UV-I 148 W/m 3,2 C 1,5 C 17,1 km/h (3 Bft) 99,69 %
17.02.2016 15:00 5,5 C 86 % 1013,9 hPa 0,0 l/m 5,9 km/h (2 Bft) NO 0,00 h 0,076 mm 0,0 UV-I 100 W/m 3,3 C 5,0 C 8,0 km/h (2 Bft) 98,04 %
17.02.2016 16:00 5,1 C 87 % 1014,0 hPa 0,0 l/m 3,8 km/h (1 Bft) O-NO 0,00 h 0,051 mm 0,0 UV-I 24 W/m 3,2 C 4,6 C 5,6 km/h (1 Bft) 99,32 %
17.02.2016 17:00 4,6 C 88 % 1014,6 hPa 0,0 l/m 8,8 km/h (2 Bft) W-SW 0,00 h 0,026 mm 0,0 UV-I 6 W/m 2,8 C 2,6 C 12,8 km/h (3 Bft) 97,92 %
17.02.2016 18:00 3,7 C 87 % 1015,6 hPa 0,0 l/m 10,8 km/h (2 Bft) SW 0,00 h 0,000 mm 0,0 UV-I 0 W/m 1,7 C 0,2 C 15,4 km/h (3 Bft) 98,88 %
17.02.2016 19:00 3,4 C 86 % 1016,3 hPa 0,0 l/m 7,9 km/h (2 Bft) W-SW 0,00 h 0,025 mm 0,0 UV-I 0 W/m 1,3 C 1,6 C 11,7 km/h (2 Bft) 97,90 %
17.02.2016 20:00 2,9 C 87 % 1016,7 hPa 0,0 l/m 3,4 km/h (1 Bft) SW 0,00 h 0,000 mm 0,0 UV-I 0 W/m 1,0 C 2,9 C 4,9 km/h (1 Bft) 99,20 %
17.02.2016 21:00 1,1 C 91 % 1017,0 hPa 0,0 l/m 1,5 km/h (1 Bft) SW 0,00 h 0,000 mm 0,0 UV-I 0 W/m -0,1 C 1,1 C 2,6 km/h (1 Bft) 98,10 %
17.02.2016 22:00 0,3 C 94 % 1017,0 hPa 0,0 l/m 1,6 km/h (1 Bft) S 0,00 h 0,000 mm 0,0 UV-I 0 W/m -0,6 C 0,3 C 2,6 km/h (1 Bft) 99,53 %
17.02.2016 23:00 -0,2 C 94 % 1017,1 hPa 0,0 l/m 1,8 km/h (1 Bft) S 0,00 h 0,000 mm 0,0 UV-I 0 W/m -1,0 C -0,2 C 2,8 km/h (1 Bft) 97,74 %
18.02.2016 00:00 -0,2 C 95 % 1017,1 hPa 0,0 l/m 2,4 km/h (1 Bft) S 0,00 h 0,000 mm 0,0 UV-I 0 W/m -0,9 C -0,2 C 3,5 km/h (1 Bft) 99,15 %
18.02.2016 01:00 -0,2 C 95 % 1017,1 hPa 0,0 l/m 3,2 km/h (1 Bft) S-SW 0,00 h 0,000 mm 0,0 UV-I 0 W/m -0,9 C -0,2 C 4,6 km/h (1 Bft) 97,63 %
18.02.2016 02:00 -0,3 C 95 % 1017,1 hPa 0,0 l/m 3,8 km/h (1 Bft) S 0,00 h 0,000 mm 0,0 UV-I 0 W/m -1,0 C -0,3 C 5,2 km/h (1 Bft) 99,45 %
18.02.2016 03:00 -0,4 C 96 % 1017,1 hPa 0,0 l/m 3,6 km/h (1 Bft) S 0,00 h 0,000 mm 0,0 UV-I 0 W/m -1,0 C -0,4 C 4,8 km/h (1 Bft) 97,80 %
18.02.2016 04:00 -0,4 C 96 % 1017,0 hPa 0,0 l/m 4,1 km/h (1 Bft) S 0,00 h 0,000 mm 0,0 UV-I 0 W/m -1,0 C -0,4 C 5,5 km/h (1 Bft) 99,04 %
18.02.2016 05:00 -0,7 C 96 % 1017,1 hPa 0,0 l/m 3,5 km/h (1 Bft) S-SW 0,00 h 0,000 mm 0,0 UV-I 0 W/m -1,3 C -0,7 C 5,0 km/h (1 Bft) 97,83 %
18.02.2016 06:00 -0,6 C 96 % 1017,1 hPa 0,0 l/m 3,3 km/h (1 Bft) S 0,00 h 0,000 mm 0,0 UV-I 0 W/m -1,2 C -0,7 C 5,2 km/h (1 Bft) 99,15 %
18.02.2016 07:00 -0,8 C 96 % 1017,4 hPa 0,0 l/m 4,0 km/h (1 Bft) S 0,00 h 0,000 mm 0,0 UV-I 17 W/m -1,3 C -0,8 C 5,6 km/h (1 Bft) 98,13 %
18.02.2016 08:00 -0,2 C 96 % 1017,6 hPa 0,0 l/m 1,9 km/h (1 Bft) S-SO 0,03 h 0,000 mm 0,0 UV-I 61 W/m -0,8 C -0,2 C 3,1 km/h (1 Bft) 99,06 %
18.02.2016 09:00 1,1 C 94 % 1017,5 hPa 0,0 l/m 3,5 km/h (1 Bft) W 0,50 h 0,025 mm 0,6 UV-I 198 W/m 0,3 C 1,1 C 5,4 km/h (1 Bft) 98,53 %
18.02.2016 10:00 3,2 C 86 % 1017,7 hPa 0,0 l/m 2,4 km/h (1 Bft) W 0,95 h 0,077 mm 1,0 UV-I 346 W/m 1,1 C 3,2 C 4,2 km/h (1 Bft) 99,15 %
18.02.2016 11:00 4,0 C 80 % 1017,2 hPa 0,0 l/m 3,4 km/h (1 Bft) NW 0,40 h 0,127 mm 1,0 UV-I 288 W/m 0,9 C 4,0 C 6,4 km/h (2 Bft) 98,48 %
18.02.2016 12:00 3,9 C 79 % 1016,6 hPa 0,0 l/m 2,6 km/h (1 Bft) N-NW 0,00 h 0,101 mm 0,8 UV-I 191 W/m 0,6 C 3,9 C 4,9 km/h (1 Bft) 98,87 %
18.02.2016 13:00 4,2 C 78 % 1016,0 hPa 0,0 l/m 2,3 km/h (1 Bft) NW 0,00 h 0,076 mm 0,7 UV-I 171 W/m 0,7 C 4,2 C 4,5 km/h (1 Bft) 98,76 %
18.02.2016 14:00 3,9 C 80 % 1015,7 hPa 0,0 l/m 2,3 km/h (1 Bft) NW 0,00 h 0,077 mm 0,0 UV-I 94 W/m 0,7 C 3,9 C 4,3 km/h (1 Bft) 98,88 %
18.02.2016 15:00 3,7 C 81 % 1015,9 hPa 0,0 l/m 1,4 km/h (1 Bft) NW 0,00 h 0,050 mm 0,0 UV-I 47 W/m 0,7 C 3,7 C 2,8 km/h (1 Bft) 98,39 %
18.02.2016 16:00 3,6 C 83 % 1015,8 hPa 0,0 l/m 1,4 km/h (1 Bft) NO 0,00 h 0,026 mm 0,0 UV-I 20 W/m 1,0 C 3,6 C 2,3 km/h (1 Bft) 98,87 %
18.02.2016 17:00 3,4 C 87 % 1015,8 hPa 0,0 l/m 0,5 km/h (0 Bft) N 0,00 h 0,000 mm 0,0 UV-I 8 W/m 1,4 C 3,4 C 1,3 km/h (1 Bft) 97,93 %
18.02.2016 18:00 3,2 C 89 % 1016,2 hPa 0,0 l/m 1,9 km/h (1 Bft) N 0,00 h 0,000 mm 0,0 UV-I 0 W/m 1,5 C 3,2 C 3,2 km/h (1 Bft) 99,20 %
18.02.2016 19:00 3,0 C 89 % 1016,4 hPa 0,0 l/m 0,2 km/h (0 Bft) N-NO 0,00 h 0,000 mm 0,0 UV-I 0 W/m 1,4 C 3,0 C 0,6 km/h (0 Bft) 97,42 %
18.02.2016 20:00 2,9 C 90 % 1016,3 hPa 0,0 l/m 1,7 km/h (1 Bft) O-SO 0,00 h 0,000 mm 0,0 UV-I 0 W/m 1,4 C 2,9 C 2,8 km/h (1 Bft) 99,36 %
18.02.2016 21:00 2,8 C 89 % 1016,5 hPa 0,0 l/m 2,7 km/h (1 Bft) SO 0,00 h 0,000 mm 0,0 UV-I 0 W/m 1,2 C 2,8 C 4,2 km/h (1 Bft) 97,76 %
18.02.2016 22:00 2,8 C 88 % 1016,3 hPa 0,0 l/m 4,2 km/h (1 Bft) S 0,00 h 0,000 mm 0,0 UV-I 0 W/m 1,0 C 2,8 C 6,1 km/h (2 Bft) 98,88 %
18.02.2016 23:00 2,8 C 88 % 1016,2 hPa 0,0 l/m 2,7 km/h (1 Bft) SW 0,00 h 0,000 mm 0,0 UV-I 0 W/m 1,0 C 2,8 C 4,1 km/h (1 Bft) 97,92 %
19.02.2016 00:00 2,8 C 88 % 1016,2 hPa 0,0 l/m 5,0 km/h (1 Bft) SW 0,00 h 0,000 mm 0,0 UV-I 0 W/m 1,0 C 2,8 C 6,8 km/h (2 Bft) 98,57 %
19.02.2016 01:00 2,9 C 88 % 1016,2 hPa 0,0 l/m 4,6 km/h (1 Bft) W-SW 0,00 h 0,000 mm 0,0 UV-I 0 W/m 1,1 C 2,9 C 6,2 km/h (2 Bft) 97,35 %
19.02.2016 02:00 3,0 C 88 % 1016,2 hPa 0,0 l/m 6,6 km/h (2 Bft) SW 0,00 h 0,000 mm 0,0 UV-I 0 W/m 1,2 C 2,6 C 8,7 km/h (2 Bft) 99,15 %
19.02.2016 03:00 3,1 C 87 % 1016,4 hPa 0,0 l/m 5,1 km/h (1 Bft) W-SW 0,00 h 0,000 mm 0,0 UV-I 0 W/m 1,2 C 3,0 C 7,0 km/h (2 Bft) 97,74 %
19.02.2016 04:00 3,1 C 87 % 1016,7 hPa 0,0 l/m 6,1 km/h (2 Bft) W-SW 0,00 h 0,000 mm 0,0 UV-I 0 W/m 1,2 C 2,7 C 8,4 km/h (2 Bft) 99,01 %
19.02.2016 05:00 3,0 C 88 % 1016,7 hPa 0,0 l/m 8,0 km/h (2 Bft) SW 0,00 h 0,000 mm 0,0 UV-I 0 W/m 1,2 C 1,5 C 10,9 km/h (2 Bft) 98,02 %
19.02.2016 06:00 3,0 C 87 % 1017,1 hPa 0,0 l/m 8,7 km/h (2 Bft) SW 0,00 h 0,000 mm 0,0 UV-I 0 W/m 1,1 C 1,0 C 12,3 km/h (3 Bft) 98,21 %
19.02.2016 07:00 3,2 C 86 % 1017,6 hPa 0,0 l/m 9,9 km/h (2 Bft) SW 0,00 h 0,000 mm 0,0 UV-I 7 W/m 1,1 C 0,2 C 14,0 km/h (3 Bft) 98,59 %
19.02.2016 08:00 3,4 C 85 % 1018,2 hPa 0,0 l/m 11,2 km/h (2 Bft) SW 0,00 h 0,025 mm 0,0 UV-I 33 W/m 1,1 C -0,5 C 15,9 km/h (3 Bft) 98,05 %
19.02.2016 09:00 4,2 C 82 % 1018,2 hPa 0,0 l/m 12,1 km/h (2 Bft) SW 0,00 h 0,026 mm 0,4 UV-I 156 W/m 1,4 C -0,1 C 17,0 km/h (3 Bft) 98,28 %
19.02.2016 10:00 5,1 C 79 % 1018,5 hPa 0,0 l/m 11,1 km/h (2 Bft) W-SW 0,20 h 0,076 mm 0,6 UV-I 218 W/m 1,7 C 1,6 C 15,7 km/h (3 Bft) 97,81 %
19.02.2016 11:00 5,6 C 76 % 1018,7 hPa 0,0 l/m 8,6 km/h (2 Bft) W-SW 0,00 h 0,102 mm 0,6 UV-I 199 W/m 1,7 C 3,6 C 13,0 km/h (3 Bft) 97,90 %
19.02.2016 12:00 6,0 C 74 % 1018,6 hPa 0,0 l/m 7,6 km/h (2 Bft) W-SW 0,00 h 0,101 mm 0,6 UV-I 178 W/m 1,8 C 4,7 C 11,1 km/h (2 Bft) 98,55 %
19.02.2016 13:00 6,3 C 73 % 1018,5 hPa 0,0 l/m 7,9 km/h (2 Bft) W-SW 0,10 h 0,102 mm 0,6 UV-I 158 W/m 1,9 C 4,9 C 11,8 km/h (2 Bft) 97,99 %
19.02.2016 14:00 6,2 C 74 % 1018,6 hPa 0,0 l/m 12,0 km/h (2 Bft) W 0,00 h 0,076 mm 0,4 UV-I 56 W/m 1,8 C 2,2 C 18,4 km/h (3 Bft) 98,29 %
19.02.2016 15:00 4,7 C 84 % 1019,3 hPa 0,0 l/m 16,4 km/h (3 Bft) W 0,00 h 0,051 mm 0,0 UV-I 26 W/m 2,2 C -1,8 C 24,0 km/h (4 Bft) 98,18 %
19.02.2016 16:00 4,1 C 84 % 1020,1 hPa 0,0 l/m 16,4 km/h (3 Bft) W-SW 0,58 h 0,025 mm 0,0 UV-I 76 W/m 1,5 C -2,6 C 23,7 km/h (4 Bft) 99,06 %
19.02.2016 17:00 3,7 C 84 % 1020,9 hPa 0,0 l/m 11,2 km/h (2 Bft) W-SW 0,03 h 0,051 mm 0,0 UV-I 16 W/m 1,3 C -0,1 C 15,8 km/h (3 Bft) 98,44 %
19.02.2016 18:00 3,7 C 85 % 1021,6 hPa 0,0 l/m 7,5 km/h (2 Bft) W-SW 0,00 h 0,025 mm 0,0 UV-I 0 W/m 1,4 C 2,5 C 11,1 km/h (2 Bft) 98,44 %
19.02.2016 19:00 3,6 C 87 % 1022,1 hPa 0,0 l/m 8,3 km/h (2 Bft) SW 0,00 h 0,000 mm 0,0 UV-I 0 W/m 1,6 C 1,8 C 12,3 km/h (3 Bft) 98,85 %
19.02.2016 20:00 3,4 C 87 % 1022,2 hPa 0,0 l/m 9,1 km/h (2 Bft) SW 0,00 h 0,000 mm 0,0 UV-I 0 W/m 1,5 C 1,0 C 13,1 km/h (3 Bft) 98,66 %
19.02.2016 21:00 3,3 C 88 % 1022,6 hPa 0,0 l/m 8,6 km/h (2 Bft) SW 0,00 h 0,000 mm 0,0 UV-I 0 W/m 1,5 C 1,3 C 13,1 km/h (3 Bft) 98,19 %
19.02.2016 22:00 3,0 C 88 % 1022,7 hPa 0,0 l/m 12,5 km/h (3 Bft) SW 0,00 h 0,000 mm 0,0 UV-I 0 W/m 1,3 C -1,7 C 17,5 km/h (3 Bft) 98,41 %
19.02.2016 23:00 2,9 C 84 % 1023,1 hPa 0,0 l/m 13,6 km/h (3 Bft) W-SW 0,00 h 0,026 mm 0,0 UV-I 0 W/m 0,6 C -2,5 C 19,0 km/h (3 Bft) 98,45 %
20.02.2016 00:00 2,8 C 84 % 1023,3 hPa 0,0 l/m 11,3 km/h (2 Bft) W-SW 0,00 h 0,000 mm 0,0 UV-I 0 W/m 0,3 C -1,2 C 16,0 km/h (3 Bft) 98,17 %
20.02.2016 01:00 2,7 C 81 % 1023,6 hPa 0,0 l/m 15,4 km/h (3 Bft) W-SW 0,00 h 0,025 mm 0,0 UV-I 0 W/m -0,3 C -3,9 C 20,9 km/h (4 Bft) 98,91 %
20.02.2016 02:00 2,5 C 81 % 1023,9 hPa 0,0 l/m 12,6 km/h (3 Bft) W-SW 0,00 h 0,026 mm 0,0 UV-I 0 W/m -0,4 C -2,3 C 17,7 km/h (3 Bft) 98,79 %
20.02.2016 03:00 2,3 C 82 % 1024,1 hPa 0,0 l/m 11,4 km/h (2 Bft) SW 0,00 h 0,025 mm 0,0 UV-I 0 W/m -0,5 C -1,8 C 16,2 km/h (3 Bft) 99,16 %
20.02.2016 04:00 1,9 C 83 % 1024,1 hPa 0,0 l/m 11,6 km/h (2 Bft) SW 0,00 h 0,026 mm 0,0 UV-I 0 W/m -0,7 C -2,6 C 16,7 km/h (3 Bft) 98,12 %
20.02.2016 05:00 1,2 C 84 % 1024,1 hPa 0,0 l/m 10,3 km/h (2 Bft) SW 0,00 h 0,025 mm 0,0 UV-I 0 W/m -1,1 C -2,2 C 15,0 km/h (3 Bft) 99,50 %
20.02.2016 06:00 1,1 C 83 % 1024,5 hPa 0,0 l/m 9,0 km/h (2 Bft) SW 0,00 h 0,025 mm 0,0 UV-I 0 W/m -1,5 C -1,3 C 12,9 km/h (3 Bft) 97,97 %
20.02.2016 07:00 1,0 C 82 % 1024,8 hPa 0,0 l/m 7,2 km/h (2 Bft) S-SW 0,03 h 0,026 mm 0,0 UV-I 21 W/m -1,8 C -0,1 C 10,3 km/h (2 Bft) 99,25 %
20.02.2016 08:00 2,1 C 77 % 1024,7 hPa 0,0 l/m 8,8 km/h (2 Bft) S-SW 0,83 h 0,025 mm 0,0 UV-I 154 W/m -1,6 C -0,1 C 12,8 km/h (3 Bft) 98,00 %
20.02.2016 09:00 4,3 C 64 % 1024,2 hPa 0,0 l/m 10,0 km/h (2 Bft) S-SW 1,00 h 0,076 mm 0,6 UV-I 305 W/m -1,9 C 1,5 C 14,8 km/h (3 Bft) 98,66 %
20.02.2016 10:00 5,8 C 51 % 1023,5 hPa 0,0 l/m 16,7 km/h (3 Bft) SW 1,00 h 0,153 mm 1,0 UV-I 417 W/m -3,6 C -0,6 C 24,1 km/h (4 Bft) 99,00 %
20.02.2016 11:00 6,7 C 44 % 1023,0 hPa 0,0 l/m 17,9 km/h (3 Bft) SW 1,00 h 0,254 mm 1,3 UV-I 434 W/m -4,7 C -0,0 C 25,4 km/h (4 Bft) 98,40 %
20.02.2016 12:00 7,2 C 41 % 1022,1 hPa 0,0 l/m 16,8 km/h (3 Bft) SW 0,78 h 0,279 mm 1,1 UV-I 331 W/m -5,2 C 1,0 C 24,2 km/h (4 Bft) 98,39 %
20.02.2016 13:00 7,3 C 39 % 1020,8 hPa 0,0 l/m 14,8 km/h (3 Bft) SW 0,00 h 0,229 mm 0,8 UV-I 223 W/m -5,7 C 2,1 C 21,8 km/h (4 Bft) 98,90 %
20.02.2016 14:00 7,4 C 40 % 1019,9 hPa 0,0 l/m 12,6 km/h (3 Bft) W-SW 0,00 h 0,178 mm 0,6 UV-I 129 W/m -5,2 C 3,3 C 18,1 km/h (3 Bft) 98,21 %
20.02.2016 15:00 7,1 C 47 % 1019,5 hPa 0,0 l/m 15,2 km/h (3 Bft) W-SW 0,00 h 0,127 mm 0,0 UV-I 64 W/m -3,4 C 1,8 C 21,2 km/h (4 Bft) 98,87 %
20.02.2016 16:00 5,8 C 64 % 1019,3 hPa 0,0 l/m 12,3 km/h (3 Bft) W-SW 0,00 h 0,101 mm 0,0 UV-I 31 W/m -0,6 C 1,7 C 18,0 km/h (3 Bft) 98,43 %
20.02.2016 17:00 3,7 C 88 % 1018,9 hPa 0,6 l/m 8,2 km/h (2 Bft) W-SW 0,00 h 0,051 mm 0,0 UV-I 9 W/m 1,8 C 1,7 C 11,9 km/h (2 Bft) 98,49 %
20.02.2016 18:00 3,2 C 93 % 1018,5 hPa 0,6 l/m 4,3 km/h (1 Bft) W 0,00 h 0,000 mm 0,0 UV-I 0 W/m 2,2 C 3,1 C 6,3 km/h (2 Bft) 99,07 %
20.02.2016 19:00 3,3 C 95 % 1018,2 hPa 1,0 l/m 7,6 km/h (2 Bft) W 0,00 h 0,000 mm 0,0 UV-I 0 W/m 2,5 C 2,0 C 11,0 km/h (2 Bft) 98,20 %
20.02.2016 20:00 4,0 C 95 % 1017,8 hPa 1,4 l/m 14,2 km/h (3 Bft) W-SW 0,00 h 0,000 mm 0,0 UV-I 0 W/m 3,3 C -1,4 C 19,8 km/h (4 Bft) 98,84 %
20.02.2016 21:00 4,8 C 93 % 1017,7 hPa 2,0 l/m 20,8 km/h (4 Bft) W-SW 0,00 h 0,000 mm 0,0 UV-I 0 W/m 3,7 C -3,7 C 29,1 km/h (5 Bft) 98,14 %
20.02.2016 22:00 5,0 C 93 % 1017,1 hPa 1,6 l/m 19,0 km/h (3 Bft) W-SW 0,00 h 0,025 mm 0,0 UV-I 0 W/m 4,0 C -2,7 C 26,5 km/h (4 Bft) 98,77 %
20.02.2016 23:00 5,3 C 94 % 1016,4 hPa 2,2 l/m 14,2 km/h (3 Bft) SW 0,00 h 0,000 mm 0,0 UV-I 0 W/m 4,4 C 0,0 C 19,7 km/h (3 Bft) 97,55 %
21.02.2016 00:00 5,2 C 95 % 1015,7 hPa 1,2 l/m 6,3 km/h (2 Bft) SW 0,00 h 0,000 mm 0,0 UV-I 0 W/m 4,4 C 4,7 C 9,3 km/h (2 Bft) 99,19 %
21.02.2016 01:00 5,3 C 96 % 1014,9 hPa 2,2 l/m 6,5 km/h (2 Bft) SW 0,00 h 0,000 mm 0,0 UV-I 0 W/m 4,7 C 4,7 C 9,8 km/h (2 Bft) 98,06 %
21.02.2016 02:00 6,0 C 96 % 1014,6 hPa 3,0 l/m 11,2 km/h (2 Bft) W-SW 0,00 h 0,000 mm 0,0 UV-I 0 W/m 5,4 C 2,7 C 15,7 km/h (3 Bft) 99,45 %
21.02.2016 03:00 7,4 C 96 % 1014,2 hPa 1,6 l/m 15,5 km/h (3 Bft) W-SW 0,00 h 0,000 mm 0,0 UV-I 0 W/m 6,7 C 1,9 C 21,3 km/h (4 Bft) 97,69 %
21.02.2016 04:00 8,0 C 96 % 1014,0 hPa 0,2 l/m 7,3 km/h (2 Bft) W 0,00 h 0,000 mm 0,0 UV-I 0 W/m 7,4 C 6,7 C 10,9 km/h (2 Bft) 99,44 %
21.02.2016 05:00 9,5 C 93 % 1014,0 hPa 0,0 l/m 18,5 km/h (3 Bft) SW 0,00 h 0,000 mm 0,0 UV-I 0 W/m 8,5 C 3,3 C 26,1 km/h (4 Bft) 98,05 %
21.02.2016 06:00 10,8 C 86 % 1014,2 hPa 0,0 l/m 26,4 km/h (4 Bft) W-SW 0,00 h 0,025 mm 0,0 UV-I 0 W/m 8,6 C 2,8 C 37,7 km/h (5 Bft) 99,02 %
21.02.2016 07:00 11,8 C 79 % 1014,6 hPa 0,0 l/m 25,4 km/h (4 Bft) W-SW 0,00 h 0,051 mm 0,0 UV-I 7 W/m 8,3 C 4,3 C 36,7 km/h (5 Bft) 98,41 %
21.02.2016 08:00 12,0 C 78 % 1015,4 hPa 0,2 l/m 23,6 km/h (4 Bft) W-SW 0,00 h 0,051 mm 0,0 UV-I 22 W/m 8,3 C 5,0 C 33,9 km/h (5 Bft) 98,31 %
21.02.2016 09:00 11,0 C 87 % 1015,9 hPa 0,2 l/m 17,8 km/h (3 Bft) W-SW 0,00 h 0,076 mm 0,0 UV-I 42 W/m 8,9 C 5,4 C 24,9 km/h (4 Bft) 98,56 %
21.02.2016 10:00 10,6 C 91 % 1016,4 hPa 0,4 l/m 15,3 km/h (3 Bft) W-SW 0,00 h 0,051 mm 0,0 UV-I 56 W/m 9,2 C 5,9 C 21,1 km/h (4 Bft) 98,59 %
21.02.2016 11:00 10,7 C 91 % 1016,6 hPa 0,6 l/m 14,4 km/h (3 Bft) W-SW 0,00 h 0,051 mm 0,0 UV-I 60 W/m 9,4 C 6,3 C 20,2 km/h (4 Bft) 98,88 %
21.02.2016 12:00 10,7 C 93 % 1016,1 hPa 0,2 l/m 11,5 km/h (2 Bft) W-SW 0,00 h 0,051 mm 0,0 UV-I 54 W/m 9,6 C 7,7 C 16,2 km/h (3 Bft) 98,54 %
21.02.2016 13:00 11,4 C 90 % 1015,3 hPa 0,0 l/m 12,5 km/h (3 Bft) W-SW 0,00 h 0,025 mm 0,6 UV-I 98 W/m 9,8 C 7,9 C 16,9 km/h (3 Bft) 99,42 %
21.02.2016 14:00 12,2 C 86 % 1014,8 hPa 0,0 l/m 11,2 km/h (2 Bft) W-SW 0,00 h 0,051 mm 0,4 UV-I 82 W/m 9,9 C 9,5 C 15,2 km/h (3 Bft) 98,08 %
21.02.2016 15:00 13,1 C 81 % 1014,7 hPa 0,0 l/m 8,0 km/h (2 Bft) W 0,00 h 0,051 mm 0,0 UV-I 56 W/m 9,8 C 11,9 C 11,9 km/h (2 Bft) 99,00 %
21.02.2016 16:00 13,0 C 80 % 1014,5 hPa 0,0 l/m 6,5 km/h (2 Bft) W 0,00 h 0,050 mm 0,0 UV-I 29 W/m 9,7 C 12,6 C 9,3 km/h (2 Bft) 97,28 %
21.02.2016 17:00 12,8 C 80 % 1014,7 hPa 0,0 l/m 5,5 km/h (1 Bft) W-SW 0,08 h 0,026 mm 0,0 UV-I 12 W/m 9,4 C 12,7 C 8,0 km/h (2 Bft) 98,93 %
21.02.2016 18:00 12,4 C 78 % 1014,9 hPa 0,0 l/m 6,1 km/h (2 Bft) SW 0,00 h 0,025 mm 0,0 UV-I 0 W/m 8,6 C 12,1 C 8,6 km/h (2 Bft) 97,69 %
21.02.2016 19:00 12,8 C 75 % 1014,9 hPa 0,0 l/m 12,3 km/h (3 Bft) W-SW 0,00 h 0,026 mm 0,0 UV-I 0 W/m 8,6 C 9,8 C 16,2 km/h (3 Bft) 99,68 %
21.02.2016 20:00 12,2 C 76 % 1014,7 hPa 0,0 l/m 11,4 km/h (2 Bft) W-SW 0,00 h 0,050 mm 0,0 UV-I 0 W/m 8,0 C 9,3 C 15,0 km/h (3 Bft) 97,60 %
21.02.2016 21:00 11,3 C 76 % 1014,6 hPa 0,0 l/m 9,9 km/h (2 Bft) SW 0,00 h 0,026 mm 0,0 UV-I 0 W/m 7,1 C 9,1 C 14,1 km/h (3 Bft) 99,26 %
21.02.2016 22:00 10,9 C 75 % 1014,4 hPa 0,0 l/m 6,0 km/h (2 Bft) SW 0,00 h 0,025 mm 0,0 UV-I 0 W/m 6,6 C 10,2 C 8,4 km/h (2 Bft) 98,01 %
21.02.2016 23:00 9,3 C 80 % 1013,8 hPa 0,0 l/m 5,2 km/h (1 Bft) S-SW 0,00 h 0,026 mm 0,0 UV-I 0 W/m 6,0 C 8,3 C 7,7 km/h (2 Bft) 98,65 %
Min-Datum _ 18.02.16 20.02.16 15.02.16 - 15.02.16 - - - - - 20.02.16 17.02.16 15.02.16 15.02.16
_ Min-Zeit 05:44 13:12 00:00 - 16:49 - - - - - 13:12 05:05 16:49 13:58
Minimum _ -0,9 C 37 % 998,2 hPa - 0,0 km/h (0 Bft) - - - - - -6,5 C -15,0 C 0,0 km/h (0 Bft) 81,82 %
Max-Datum _ 21.02.16 16.02.16 16.02.16 21.02.16 17.02.16 - 20.02.16 20.02.16 17.02.16 17.02.16 21.02.16 21.02.16 17.02.16 15.02.16
_ Max-Zeit 15:32 02:50 18:58 02:03 11:12 - 11:02 12:01 12:36 10:39 15:09 15:38 08:30 00:00
Maximum _ 13,3 C 97 % 1031,8 hPa 3,0 l/m 49,9 km/h
O-NO (6 Bft)
- 0,03 h 0,279 mm 1,5 UV-I 646 W/m 10,2 C 13,3 C 66,0 km/h
O-NO (8 Bft)
100,00 %
Durchschnitt _ 4,5 C 86 % 1018,3 hPa #23,6 l/m 10,5 km/h (2 Bft) W-SW #9:06 h #5,563 mm 0,7 UV-I 107 W/m 2,2 C 1,3 C 14,7 km/h (3 Bft) 98,52 %